createdAt,value
2023-12-30T00:01:48.624Z,95.44
2023-12-30T00:04:18.952Z,94.97
2023-12-30T00:06:49.726Z,95.26
2023-12-30T00:09:20.311Z,95.06
2023-12-30T00:11:51.241Z,95.27
2023-12-30T00:14:20.118Z,95.34
2023-12-30T00:16:51.206Z,95.19
2023-12-30T00:19:21.536Z,95.09
2023-12-30T00:21:51.245Z,95.03
2023-12-30T00:24:21.394Z,94.80
2023-12-30T00:26:51.799Z,95.15
2023-12-30T00:29:22.976Z,94.99
2023-12-30T00:31:52.506Z,94.99
2023-12-30T00:34:23.154Z,95.17
2023-12-30T00:36:53.620Z,95.20
2023-12-30T00:39:25.281Z,95.21
2023-12-30T00:41:54.926Z,95.01
2023-12-30T00:44:25.568Z,95.16
2023-12-30T00:46:56.835Z,95.08
2023-12-30T00:49:27.567Z,95.08
2023-12-30T00:51:58.616Z,94.86
2023-12-30T00:54:37.968Z,95.04
2023-12-30T00:57:11.869Z,94.96
2023-12-30T00:59:43.858Z,95.08
2023-12-30T01:02:13.727Z,95.07
2023-12-30T01:04:44.550Z,95.21
2023-12-30T01:07:15.567Z,95.07
2023-12-30T01:09:46.744Z,94.99
2023-12-30T01:12:17.380Z,95.05
2023-12-30T01:14:47.816Z,95.14
2023-12-30T01:17:18.668Z,95.15
2023-12-30T01:19:48.676Z,95.18
2023-12-30T01:22:20.071Z,95.20
2023-12-30T01:24:50.504Z,95.25
2023-12-30T01:27:21.734Z,95.02
2023-12-30T01:29:51.662Z,95.04
2023-12-30T01:32:23.305Z,95.08
2023-12-30T01:34:52.837Z,95.25
2023-12-30T01:37:23.602Z,95.54
2023-12-30T01:39:53.444Z,95.39
2023-12-30T01:42:25.895Z,95.18
2023-12-30T01:44:55.518Z,95.47
2023-12-30T01:47:24.625Z,95.48
2023-12-30T01:49:54.224Z,95.61
2023-12-30T01:52:25.003Z,95.47
2023-12-30T01:54:55.682Z,95.45
2023-12-30T01:57:24.848Z,95.56
2023-12-30T01:59:55.582Z,95.58
2023-12-30T02:02:25.350Z,95.56
2023-12-30T02:04:56.181Z,95.63
2023-12-30T02:07:26.212Z,95.53
2023-12-30T02:09:56.367Z,95.77
2023-12-30T02:12:25.500Z,95.66
2023-12-30T02:14:54.445Z,95.82
2023-12-30T02:17:26.110Z,95.88
2023-12-30T02:19:57.268Z,95.61
2023-12-30T02:22:27.523Z,95.90
2023-12-30T02:25:01.374Z,95.60
2023-12-30T02:27:31.235Z,95.78
2023-12-30T02:30:00.577Z,95.95
2023-12-30T02:32:30.888Z,95.71
2023-12-30T02:35:01.209Z,95.77
2023-12-30T02:37:32.034Z,95.66
2023-12-30T02:40:02.117Z,96.13
2023-12-30T02:42:33.978Z,95.87
2023-12-30T02:45:33.019Z,96.09
2023-12-30T02:48:02.893Z,96.22
2023-12-30T02:50:33.942Z,96.05
2023-12-30T02:53:04.089Z,96.19
2023-12-30T02:55:34.529Z,96.20
2023-12-30T02:58:04.341Z,96.22
2023-12-30T03:00:34.829Z,96.16
2023-12-30T03:03:04.986Z,96.43
2023-12-30T03:05:34.428Z,96.36
2023-12-30T03:08:04.343Z,96.36
2023-12-30T03:10:35.461Z,96.52
2023-12-30T03:13:06.272Z,96.39
2023-12-30T03:15:35.659Z,96.64
2023-12-30T03:18:05.508Z,97.02
2023-12-30T03:20:35.750Z,96.95
2023-12-30T03:23:05.132Z,97.12
2023-12-30T03:25:38.891Z,97.35
2023-12-30T03:28:09.250Z,97.60
2023-12-30T03:30:39.286Z,97.28
2023-12-30T03:33:09.279Z,97.37
2023-12-30T03:35:40.335Z,97.41
2023-12-30T03:38:08.991Z,97.30
2023-12-30T03:40:38.382Z,97.31
2023-12-30T03:43:08.174Z,97.19
2023-12-30T03:46:08.242Z,97.28
2023-12-30T03:48:39.887Z,97.43
2023-12-30T03:51:12.384Z,97.53
2023-12-30T03:53:41.788Z,98.13
2023-12-30T03:56:13.436Z,97.68
2023-12-30T03:58:42.936Z,96.80
2023-12-30T04:01:12.195Z,96.03
2023-12-30T04:03:42.268Z,96.24
2023-12-30T04:06:18.031Z,96.18
2023-12-30T04:08:47.777Z,95.98
2023-12-30T04:11:16.418Z,96.25
2023-12-30T04:13:45.310Z,96.11
2023-12-30T04:16:16.793Z,95.97
2023-12-30T04:18:46.702Z,95.69
2023-12-30T04:21:17.934Z,95.62
2023-12-30T04:23:48.302Z,96.19
2023-12-30T04:26:17.004Z,95.76
2023-12-30T04:28:49.798Z,95.39
2023-12-30T04:31:20.733Z,95.12
2023-12-30T04:33:50.163Z,94.75
2023-12-30T04:36:21.490Z,95.26
2023-12-30T04:38:51.997Z,95.36
2023-12-30T04:41:24.388Z,95.37
2023-12-30T04:43:56.142Z,95.18
2023-12-30T04:46:50.467Z,95.19
2023-12-30T04:49:20.653Z,95.07
2023-12-30T04:51:51.086Z,95.05
2023-12-30T04:54:19.784Z,95.35
2023-12-30T04:56:48.647Z,95.33
2023-12-30T04:59:19.008Z,95.41
2023-12-30T05:01:49.935Z,95.42
2023-12-30T05:04:20.421Z,95.53
2023-12-30T05:06:50.009Z,95.71
2023-12-30T05:09:22.040Z,95.77
2023-12-30T05:11:52.741Z,95.78
2023-12-30T05:14:23.497Z,95.82
2023-12-30T05:16:52.725Z,95.91
2023-12-30T05:19:21.404Z,96.06
2023-12-30T05:21:53.282Z,96.04
2023-12-30T05:24:23.877Z,96.06
2023-12-30T05:26:54.521Z,96.32
2023-12-30T05:29:25.256Z,96.54
2023-12-30T05:31:55.924Z,96.48
2023-12-30T05:34:26.107Z,96.54
2023-12-30T05:36:56.594Z,96.57
2023-12-30T05:39:26.998Z,96.55
2023-12-30T05:41:56.596Z,96.72
2023-12-30T05:44:27.114Z,96.68
2023-12-30T05:46:57.552Z,96.95
2023-12-30T05:49:28.499Z,96.87
2023-12-30T05:51:59.049Z,96.85
2023-12-30T05:54:28.304Z,97.13
2023-12-30T05:56:57.012Z,96.95
2023-12-30T05:59:28.252Z,97.05
2023-12-30T06:02:00.863Z,96.94
2023-12-30T06:04:31.019Z,96.77
2023-12-30T06:07:01.805Z,96.69
2023-12-30T06:09:30.785Z,96.93
2023-12-30T06:12:00.203Z,96.83
2023-12-30T06:14:30.453Z,96.86
2023-12-30T06:17:00.890Z,96.90
2023-12-30T06:19:31.292Z,96.78
2023-12-30T06:22:01.721Z,96.89
2023-12-30T06:24:31.495Z,96.86
2023-12-30T06:27:00.836Z,96.95
2023-12-30T06:29:31.563Z,97.28
2023-12-30T06:32:05.725Z,96.88
2023-12-30T06:34:36.235Z,96.52
2023-12-30T06:37:06.594Z,97.00
2023-12-30T06:39:37.299Z,96.93
2023-12-30T06:42:06.794Z,96.69
2023-12-30T06:44:40.765Z,96.96
2023-12-30T06:47:11.083Z,96.98
2023-12-30T06:49:41.015Z,97.16
2023-12-30T06:52:11.258Z,97.45
2023-12-30T06:54:44.441Z,97.57
2023-12-30T06:57:15.123Z,97.98
2023-12-30T06:59:44.663Z,97.97
2023-12-30T07:02:15.434Z,98.07
2023-12-30T07:04:44.435Z,98.13
2023-12-30T07:07:15.317Z,98.02
2023-12-30T07:09:45.325Z,98.16
2023-12-30T07:12:15.045Z,98.16
2023-12-30T07:14:43.933Z,98.20
2023-12-30T07:17:14.034Z,98.33
2023-12-30T07:19:42.948Z,98.44
2023-12-30T07:22:13.673Z,98.17
2023-12-30T07:24:46.584Z,98.31
2023-12-30T07:27:16.194Z,98.33
2023-12-30T07:29:45.296Z,98.40
2023-12-30T07:32:14.689Z,98.28
2023-12-30T07:34:43.446Z,98.58
2023-12-30T07:37:13.138Z,98.84
2023-12-30T07:39:42.426Z,98.72
2023-12-30T07:42:11.295Z,98.62
2023-12-30T07:44:42.974Z,98.80
2023-12-30T07:47:13.082Z,98.94
2023-12-30T07:49:43.700Z,99.23
2023-12-30T07:52:13.890Z,99.23
2023-12-30T07:54:45.184Z,99.42
2023-12-30T07:57:15.737Z,99.29
2023-12-30T07:59:46.179Z,99.68
2023-12-30T08:02:16.631Z,99.54
2023-12-30T08:04:47.051Z,99.74
2023-12-30T08:07:18.929Z,99.64
2023-12-30T08:09:50.205Z,99.86
2023-12-30T08:12:20.794Z,99.62
2023-12-30T08:14:49.553Z,99.80
2023-12-30T08:17:19.337Z,99.57
2023-12-30T08:19:50.469Z,99.62
2023-12-30T08:22:20.535Z,99.94
2023-12-30T08:24:49.964Z,99.90
2023-12-30T08:27:20.371Z,99.76
2023-12-30T08:29:50.785Z,99.74
2023-12-30T08:32:20.707Z,99.71
2023-12-30T08:34:49.528Z,99.71
2023-12-30T08:37:19.638Z,99.63
2023-12-30T08:39:48.920Z,99.74
2023-12-30T08:42:18.083Z,99.76
2023-12-30T08:45:19.980Z,99.85
2023-12-30T08:47:49.462Z,99.93
2023-12-30T08:50:18.747Z,99.82
2023-12-30T08:52:47.591Z,99.92
2023-12-30T08:55:16.571Z,99.97
2023-12-30T08:57:49.611Z,99.95
2023-12-30T09:00:19.274Z,100.00
2023-12-30T09:02:49.893Z,99.94
2023-12-30T09:05:22.383Z,99.91
2023-12-30T09:07:52.967Z,99.98
2023-12-30T09:10:22.081Z,100.00
2023-12-30T09:12:51.560Z,100.00
2023-12-30T09:15:21.581Z,100.00
2023-12-30T09:17:54.344Z,100.00
2023-12-30T09:20:24.943Z,99.99
2023-12-30T09:22:55.229Z,100.00
2023-12-30T09:25:26.175Z,99.72
2023-12-30T09:27:57.527Z,99.60
2023-12-30T09:30:29.081Z,99.13
2023-12-30T09:33:00.971Z,98.35
2023-12-30T09:35:31.933Z,98.28
2023-12-30T09:38:02.393Z,98.29
2023-12-30T09:40:33.627Z,98.38
2023-12-30T09:43:08.038Z,98.74
2023-12-30T09:46:08.664Z,99.12
2023-12-30T09:48:39.108Z,99.40
2023-12-30T09:51:08.203Z,99.57
2023-12-30T09:53:36.898Z,99.60
2023-12-30T09:56:07.784Z,99.72
2023-12-30T09:58:41.733Z,99.59
2023-12-30T10:01:11.441Z,99.59
2023-12-30T10:03:41.960Z,99.67
2023-12-30T10:06:13.053Z,99.08
2023-12-30T10:08:45.257Z,97.09
2023-12-30T10:11:13.959Z,94.46
2023-12-30T10:13:43.027Z,90.77
2023-12-30T10:16:14.386Z,90.17
2023-12-30T10:18:43.989Z,91.48
2023-12-30T10:21:14.016Z,92.50
2023-12-30T10:23:42.665Z,94.02
2023-12-30T10:26:11.402Z,95.13
2023-12-30T10:28:40.859Z,95.38
2023-12-30T10:31:10.737Z,95.95
2023-12-30T10:33:42.279Z,96.49
2023-12-30T10:36:14.157Z,96.40
2023-12-30T10:38:42.901Z,96.60
2023-12-30T10:41:12.303Z,96.45
2023-12-30T10:43:41.581Z,96.23
2023-12-30T10:46:14.498Z,96.25
2023-12-30T10:49:05.719Z,96.33
2023-12-30T10:51:36.146Z,95.75
2023-12-30T10:54:12.176Z,95.99
2023-12-30T10:56:46.723Z,95.85
2023-12-30T10:59:16.676Z,95.96
2023-12-30T11:01:47.389Z,96.44
2023-12-30T11:04:18.278Z,95.69
2023-12-30T11:06:53.559Z,95.77
2023-12-30T11:09:24.810Z,95.46
2023-12-30T11:11:54.837Z,95.76
2023-12-30T11:14:23.967Z,95.96
2023-12-30T11:16:56.144Z,95.55
2023-12-30T11:19:37.267Z,95.56
2023-12-30T11:22:08.790Z,95.19
2023-12-30T11:24:43.942Z,94.98
2023-12-30T11:27:15.464Z,95.56
2023-12-30T11:29:46.199Z,94.90
2023-12-30T11:32:18.351Z,94.61
2023-12-30T11:34:49.836Z,94.56
2023-12-30T11:37:20.631Z,94.02
2023-12-30T11:39:52.709Z,93.25
2023-12-30T11:42:33.831Z,93.26
2023-12-30T11:49:08.891Z,92.86
2023-12-30T11:51:38.812Z,92.35
2023-12-30T11:54:08.281Z,92.85
2023-12-30T11:56:38.488Z,92.55
2023-12-30T11:59:09.164Z,92.58
2023-12-30T12:01:38.351Z,92.26
2023-12-30T12:04:07.422Z,92.43
2023-12-30T12:06:39.563Z,92.56
2023-12-30T12:09:11.200Z,92.92
2023-12-30T12:11:42.071Z,92.95
2023-12-30T12:14:12.860Z,93.15
2023-12-30T12:16:42.297Z,92.74
2023-12-30T12:19:11.386Z,92.44
2023-12-30T12:21:42.989Z,92.49
2023-12-30T12:24:11.919Z,92.31
2023-12-30T12:26:42.887Z,92.11
2023-12-30T12:29:13.189Z,92.70
2023-12-30T12:31:45.370Z,92.26
2023-12-30T12:34:25.051Z,92.07
2023-12-30T12:36:55.985Z,91.89
2023-12-30T12:39:26.219Z,92.17
2023-12-30T12:41:56.100Z,91.57
2023-12-30T12:44:26.676Z,91.78
2023-12-30T12:51:24.227Z,90.11
2023-12-30T12:53:55.390Z,89.66
2023-12-30T12:56:26.343Z,89.67
2023-12-30T12:58:55.777Z,90.32
2023-12-30T13:01:24.563Z,90.42
2023-12-30T13:03:56.433Z,90.62
2023-12-30T13:06:27.402Z,90.11
2023-12-30T13:08:57.974Z,90.39
2023-12-30T13:11:34.121Z,89.62
2023-12-30T13:14:05.524Z,89.55
2023-12-30T13:16:35.529Z,89.70
2023-12-30T13:19:06.220Z,89.97
2023-12-30T13:21:36.291Z,90.07
2023-12-30T13:24:06.630Z,90.34
2023-12-30T13:26:37.757Z,90.56
2023-12-30T13:29:08.557Z,90.32
2023-12-30T13:31:38.943Z,90.95
2023-12-30T13:34:11.565Z,90.98
2023-12-30T13:36:43.029Z,91.38
2023-12-30T13:39:15.383Z,91.48
2023-12-30T13:41:47.726Z,91.36
2023-12-30T13:44:19.125Z,91.53
2023-12-30T13:47:35.509Z,91.61
2023-12-30T13:50:18.488Z,91.44
2023-12-30T13:52:52.007Z,91.76
2023-12-30T13:55:24.249Z,91.39
2023-12-30T13:57:55.977Z,91.19
2023-12-30T14:00:25.558Z,91.35
2023-12-30T14:02:56.138Z,91.22
2023-12-30T14:05:31.991Z,91.51
2023-12-30T14:08:32.751Z,91.65
2023-12-30T14:11:11.040Z,91.82
2023-12-30T14:13:40.773Z,91.88
2023-12-30T14:16:15.050Z,91.91
2023-12-30T14:18:44.466Z,92.42
2023-12-30T14:21:15.451Z,92.45
2023-12-30T14:23:45.398Z,92.42
2023-12-30T14:26:15.405Z,92.22
2023-12-30T14:28:46.734Z,92.14
2023-12-30T14:31:18.882Z,92.09
2023-12-30T14:33:51.817Z,92.45
2023-12-30T14:36:23.912Z,92.52
2023-12-30T14:38:53.452Z,92.41
2023-12-30T14:41:26.412Z,92.96
2023-12-30T14:43:56.053Z,92.73
2023-12-30T14:46:54.891Z,92.66
2023-12-30T14:49:31.762Z,92.75
2023-12-30T14:52:01.623Z,92.99
2023-12-30T14:54:31.093Z,93.18
2023-12-30T14:57:01.230Z,93.40
2023-12-30T14:59:31.747Z,93.20
2023-12-30T15:02:05.321Z,92.97
2023-12-30T15:04:35.814Z,93.15
2023-12-30T15:07:07.522Z,93.33
2023-12-30T15:09:37.572Z,93.26
2023-12-30T15:12:07.377Z,92.98
2023-12-30T15:14:38.391Z,93.01
2023-12-30T15:17:08.698Z,92.75
2023-12-30T15:19:39.065Z,92.99
2023-12-30T15:22:08.411Z,93.27
2023-12-30T15:24:39.041Z,93.20
2023-12-30T15:27:10.276Z,93.16
2023-12-30T15:29:39.943Z,93.13
2023-12-30T15:32:10.272Z,93.09
2023-12-30T15:34:40.517Z,92.90
2023-12-30T15:37:10.806Z,92.77
2023-12-30T15:39:40.115Z,92.80
2023-12-30T15:42:09.403Z,92.68
2023-12-30T15:44:40.260Z,92.76
2023-12-30T15:47:16.824Z,92.78
2023-12-30T15:49:46.963Z,93.26
2023-12-30T15:52:16.563Z,93.30
2023-12-30T15:54:45.358Z,93.99
2023-12-30T15:57:14.796Z,94.10
2023-12-30T15:59:45.783Z,94.56
2023-12-30T16:02:15.932Z,94.56
2023-12-30T16:04:46.815Z,94.62
2023-12-30T16:07:16.288Z,94.25
2023-12-30T16:09:47.089Z,94.29
2023-12-30T16:12:17.156Z,93.99
2023-12-30T16:14:48.744Z,94.01
2023-12-30T16:17:19.061Z,93.30
2023-12-30T16:19:48.557Z,93.03
2023-12-30T16:22:18.406Z,93.31
2023-12-30T16:24:48.317Z,93.24
2023-12-30T16:27:18.867Z,92.50
2023-12-30T16:29:50.680Z,91.91
2023-12-30T16:32:22.199Z,92.31
2023-12-30T16:34:51.794Z,93.20
2023-12-30T16:37:24.437Z,93.07
2023-12-30T16:39:56.258Z,92.69
2023-12-30T16:42:26.288Z,92.02
2023-12-30T16:45:04.151Z,91.75
2023-12-30T16:47:36.089Z,92.10
2023-12-30T16:50:07.865Z,92.01
2023-12-30T16:52:37.955Z,91.95
2023-12-30T16:55:12.754Z,92.07
2023-12-30T16:57:47.009Z,92.29
2023-12-30T17:00:21.897Z,92.20
2023-12-30T17:02:52.155Z,92.00
2023-12-30T17:05:24.129Z,92.23
2023-12-30T17:07:54.126Z,92.42
2023-12-30T17:10:25.286Z,92.40
2023-12-30T17:12:56.662Z,92.72
2023-12-30T17:15:26.639Z,92.79
2023-12-30T17:17:58.321Z,92.88
2023-12-30T17:20:28.054Z,93.12
2023-12-30T17:22:58.082Z,93.41
2023-12-30T17:25:28.049Z,93.23
2023-12-30T17:27:56.930Z,93.21
2023-12-30T17:30:26.167Z,93.52
2023-12-30T17:32:56.346Z,93.30
2023-12-30T17:35:28.309Z,93.36
2023-12-30T17:37:58.333Z,93.44
2023-12-30T17:40:28.103Z,93.44
2023-12-30T17:42:59.089Z,93.82
2023-12-30T17:45:56.035Z,94.39
2023-12-30T17:48:24.931Z,94.08
2023-12-30T17:50:55.460Z,93.44
2023-12-30T17:53:25.373Z,93.97
2023-12-30T17:55:56.132Z,94.26
2023-12-30T17:58:26.011Z,93.98
2023-12-30T18:00:55.428Z,93.56
2023-12-30T18:03:26.773Z,92.13
2023-12-30T18:05:57.192Z,90.99
2023-12-30T18:08:26.915Z,91.18
2023-12-30T18:10:57.978Z,90.91
2023-12-30T18:13:31.182Z,91.39
2023-12-30T18:16:03.294Z,91.63
2023-12-30T18:18:33.112Z,91.89
2023-12-30T18:21:02.508Z,92.30
2023-12-30T18:23:33.512Z,92.55
2023-12-30T18:26:03.917Z,92.64
2023-12-30T18:28:33.692Z,92.38
2023-12-30T18:31:03.946Z,92.45
2023-12-30T18:33:33.883Z,92.49
2023-12-30T18:36:03.065Z,92.57
2023-12-30T18:38:33.287Z,92.43
2023-12-30T18:41:04.364Z,92.76
2023-12-30T18:43:35.052Z,92.76
2023-12-30T18:46:57.066Z,92.76
2023-12-30T18:49:28.339Z,92.55
2023-12-30T18:51:59.464Z,92.68
2023-12-30T18:54:30.669Z,93.18
2023-12-30T18:57:01.321Z,92.75
2023-12-30T18:59:33.227Z,92.84
2023-12-30T19:02:05.886Z,92.90
2023-12-30T19:04:37.926Z,92.91
2023-12-30T19:07:10.992Z,93.08
2023-12-30T19:09:42.803Z,93.24
2023-12-30T19:12:12.643Z,93.09
2023-12-30T19:14:42.361Z,93.14
2023-12-30T19:17:13.797Z,93.00
2023-12-30T19:19:44.576Z,93.20
2023-12-30T19:22:14.981Z,93.17
2023-12-30T19:24:47.048Z,93.17
2023-12-30T19:27:17.119Z,93.28
2023-12-30T19:29:46.559Z,93.01
2023-12-30T19:32:17.115Z,93.20
2023-12-30T19:34:47.600Z,92.96
2023-12-30T19:37:17.798Z,93.00
2023-12-30T19:39:48.113Z,93.28
2023-12-30T19:42:17.939Z,93.11
2023-12-30T19:44:49.331Z,93.21
2023-12-30T19:47:19.367Z,93.54
2023-12-30T19:49:48.704Z,93.47
2023-12-30T19:52:19.455Z,93.39
2023-12-30T19:54:49.410Z,93.57
2023-12-30T19:57:20.470Z,93.30
2023-12-30T19:59:51.141Z,93.53
2023-12-30T20:02:21.378Z,93.31
2023-12-30T20:04:52.822Z,93.25
2023-12-30T20:07:24.080Z,93.44
2023-12-30T20:09:55.761Z,92.93
2023-12-30T20:12:31.408Z,92.84
2023-12-30T20:15:05.910Z,93.34
2023-12-30T20:17:45.605Z,93.06
2023-12-30T20:20:20.809Z,93.17
2023-12-30T20:22:52.568Z,93.10
2023-12-30T20:25:22.154Z,93.10
2023-12-30T20:27:54.577Z,93.19
2023-12-30T20:30:25.279Z,93.18
2023-12-30T20:32:56.305Z,93.76
2023-12-30T20:35:29.471Z,93.73
2023-12-30T20:38:02.761Z,93.69
2023-12-30T20:40:34.524Z,93.65
2023-12-30T20:43:08.806Z,93.73
2023-12-30T20:45:40.253Z,93.49
2023-12-30T20:48:11.062Z,93.32
2023-12-30T20:50:41.704Z,93.30
2023-12-30T20:53:14.339Z,93.54
2023-12-30T20:55:45.617Z,93.56
2023-12-30T20:58:18.740Z,93.50
2023-12-30T21:00:47.899Z,93.36
2023-12-30T21:03:17.940Z,93.91
2023-12-30T21:05:47.378Z,93.78
2023-12-30T21:08:17.644Z,94.15
2023-12-30T21:10:49.553Z,94.17
2023-12-30T21:13:21.666Z,94.18
2023-12-30T21:15:53.838Z,94.21
2023-12-30T21:18:23.500Z,94.15
2023-12-30T21:20:53.964Z,94.40
2023-12-30T21:23:24.030Z,93.85
2023-12-30T21:25:56.131Z,93.91
2023-12-30T21:28:29.872Z,93.98
2023-12-30T21:31:03.909Z,94.54
2023-12-30T21:33:35.167Z,94.87
2023-12-30T21:36:07.989Z,94.77
2023-12-30T21:38:39.516Z,94.87
2023-12-30T21:41:12.342Z,94.79
2023-12-30T21:43:42.835Z,94.92
2023-12-30T21:49:58.694Z,95.20
2023-12-30T21:52:28.215Z,95.28
2023-12-30T21:54:58.621Z,95.30
2023-12-30T21:57:30.213Z,95.22
2023-12-30T22:00:01.154Z,95.35
2023-12-30T22:02:35.650Z,95.80
2023-12-30T22:05:04.498Z,95.51
2023-12-30T22:07:35.402Z,95.35
2023-12-30T22:10:05.389Z,95.28
2023-12-30T22:12:39.510Z,95.11
2023-12-30T22:15:09.209Z,95.19
2023-12-30T22:17:38.347Z,95.15
2023-12-30T22:20:09.421Z,95.09
2023-12-30T22:22:41.542Z,95.47
2023-12-30T22:25:11.956Z,95.48
2023-12-30T22:27:42.642Z,95.60
2023-12-30T22:30:12.270Z,95.49
2023-12-30T22:32:44.420Z,95.60
2023-12-30T22:35:17.136Z,95.61
2023-12-30T22:37:47.415Z,95.62
2023-12-30T22:40:16.782Z,95.78
2023-12-30T22:42:45.975Z,95.68
2023-12-30T22:45:19.049Z,95.94
2023-12-30T22:47:49.519Z,95.97
2023-12-30T22:50:18.670Z,95.81
2023-12-30T22:52:47.619Z,96.11
2023-12-30T22:55:17.922Z,96.46
2023-12-30T22:57:46.994Z,96.56
2023-12-30T23:00:22.558Z,96.20
2023-12-30T23:02:52.608Z,96.54
2023-12-30T23:05:22.282Z,96.32
2023-12-30T23:07:52.927Z,96.14
2023-12-30T23:10:22.461Z,96.75
2023-12-30T23:12:53.087Z,97.05
2023-12-30T23:15:23.815Z,96.72
2023-12-30T23:17:54.552Z,96.75
2023-12-30T23:20:25.277Z,96.63
2023-12-30T23:22:55.331Z,96.57
2023-12-30T23:25:25.778Z,96.55
2023-12-30T23:27:56.311Z,96.55
2023-12-30T23:30:27.409Z,96.33
2023-12-30T23:32:59.274Z,96.45
2023-12-30T23:35:29.751Z,96.59
2023-12-30T23:38:02.263Z,96.47
2023-12-30T23:40:35.357Z,96.46
2023-12-30T23:43:04.370Z,96.26
2023-12-30T23:45:35.832Z,96.43
2023-12-30T23:48:05.783Z,96.23
2023-12-30T23:50:36.475Z,96.32
2023-12-30T23:53:05.417Z,96.34
2023-12-30T23:55:35.258Z,96.46
2023-12-30T23:58:05.365Z,96.90
